createdAt,value
2022-10-10T00:00:19.939Z,0
2022-10-10T00:01:20.728Z,0
2022-10-10T00:02:21.290Z,0
2022-10-10T00:03:21.992Z,0
2022-10-10T00:04:22.638Z,0
2022-10-10T00:05:23.318Z,0
2022-10-10T00:06:54.769Z,0
2022-10-10T00:07:55.419Z,0
2022-10-10T00:08:56.137Z,0
2022-10-10T00:09:56.859Z,0
2022-10-10T00:10:58.324Z,0
2022-10-10T00:11:59.060Z,0
2022-10-10T00:12:59.695Z,0
2022-10-10T00:14:00.298Z,0
2022-10-10T00:15:01.144Z,0
2022-10-10T00:16:01.869Z,0
2022-10-10T00:17:02.633Z,0
2022-10-10T00:18:03.985Z,0
2022-10-10T00:19:04.610Z,0
2022-10-10T00:20:05.263Z,0
2022-10-10T00:21:06.942Z,0
2022-10-10T00:22:07.625Z,0
2022-10-10T00:23:08.334Z,0
2022-10-10T00:24:08.928Z,0
2022-10-10T00:25:10.616Z,0
2022-10-10T00:26:16.190Z,0
2022-10-10T00:27:11.895Z,0
2022-10-10T00:28:12.801Z,0
2022-10-10T00:29:13.333Z,0
2022-10-10T00:30:14.129Z,0
2022-10-10T00:31:15.312Z,0
2022-10-10T00:32:16.132Z,0
2022-10-10T00:33:17.035Z,0
2022-10-10T00:34:17.808Z,0
2022-10-10T00:35:18.453Z,0
2022-10-10T00:36:19.017Z,0
2022-10-10T00:37:19.742Z,0
2022-10-10T00:38:20.788Z,0
2022-10-10T00:39:21.636Z,0
2022-10-10T00:40:22.234Z,0
2022-10-10T00:41:54.461Z,0
2022-10-10T00:42:55.208Z,0
2022-10-10T00:43:55.910Z,0
2022-10-10T00:44:56.595Z,0
2022-10-10T00:45:57.201Z,0
2022-10-10T00:46:57.838Z,0
2022-10-10T00:47:58.606Z,0
2022-10-10T00:48:59.987Z,0
2022-10-10T00:50:00.711Z,0
2022-10-10T00:51:01.983Z,0
2022-10-10T00:52:02.581Z,0
2022-10-10T00:53:03.374Z,0
2022-10-10T00:54:04.351Z,0
2022-10-10T00:55:05.306Z,0
2022-10-10T00:56:06.862Z,0
2022-10-10T00:57:07.437Z,0
2022-10-10T00:58:08.031Z,0
2022-10-10T00:59:08.893Z,0
2022-10-10T01:00:09.846Z,0
2022-10-10T01:01:11.941Z,0
2022-10-10T01:02:12.447Z,0
2022-10-10T01:03:13.936Z,0
2022-10-10T01:04:14.804Z,0
2022-10-10T01:05:15.910Z,0
2022-10-10T01:06:16.781Z,0
2022-10-10T01:07:17.443Z,0
2022-10-10T01:08:18.038Z,0
2022-10-10T01:09:19.110Z,0
2022-10-10T01:10:20.114Z,0
2022-10-10T01:11:22.021Z,0
2022-10-10T01:12:22.570Z,0
2022-10-10T01:13:53.843Z,0
2022-10-10T01:14:54.753Z,0
2022-10-10T01:15:55.514Z,0
2022-10-10T01:16:56.207Z,0
2022-10-10T01:17:56.749Z,0
2022-10-10T01:18:57.339Z,0
2022-10-10T01:19:58.237Z,0
2022-10-10T01:21:00.059Z,0
2022-10-10T01:22:01.986Z,0
2022-10-10T01:23:02.604Z,0
2022-10-10T01:24:03.134Z,0
2022-10-10T01:25:03.867Z,0
2022-10-10T01:26:05.652Z,0
2022-10-10T01:27:06.593Z,0
2022-10-10T01:28:07.647Z,0
2022-10-10T01:29:08.336Z,0
2022-10-10T01:30:09.024Z,0
2022-10-10T01:31:10.594Z,0
2022-10-10T01:32:11.347Z,0
2022-10-10T01:33:11.956Z,0
2022-10-10T01:34:12.493Z,0
2022-10-10T01:35:13.200Z,0
2022-10-10T01:36:14.175Z,0
2022-10-10T01:37:15.072Z,0
2022-10-10T01:38:15.695Z,0
2022-10-10T01:39:16.369Z,0
2022-10-10T01:40:17.130Z,0
2022-10-10T01:41:19.041Z,0
2022-10-10T01:42:19.705Z,0
2022-10-10T01:43:20.751Z,0
2022-10-10T01:44:21.372Z,0
2022-10-10T01:45:22.008Z,0
2022-10-10T01:46:23.228Z,0
2022-10-10T01:47:54.228Z,0
2022-10-10T01:48:55.491Z,0
2022-10-10T01:49:56.088Z,0
2022-10-10T01:50:56.739Z,0
2022-10-10T01:51:58.464Z,0
2022-10-10T01:53:00.021Z,0
2022-10-10T01:54:00.757Z,0
2022-10-10T01:55:01.373Z,0
2022-10-10T01:56:01.908Z,0
2022-10-10T01:57:02.748Z,0
2022-10-10T01:58:04.063Z,0
2022-10-10T01:59:05.295Z,0
2022-10-10T02:00:06.094Z,0
2022-10-10T02:01:07.483Z,0
2022-10-10T02:02:08.058Z,0
2022-10-10T02:03:08.655Z,0
2022-10-10T02:04:09.377Z,0
2022-10-10T02:05:10.022Z,0
2022-10-10T02:06:10.742Z,0
2022-10-10T02:07:11.619Z,0
2022-10-10T02:08:12.201Z,0
2022-10-10T02:09:12.907Z,0
2022-10-10T02:10:13.598Z,0
2022-10-10T02:11:14.990Z,0
2022-10-10T02:12:15.556Z,0
2022-10-10T02:13:16.059Z,0
2022-10-10T02:14:16.793Z,0
2022-10-10T02:15:18.124Z,0
2022-10-10T02:16:18.958Z,0
2022-10-10T02:17:19.856Z,0
2022-10-10T02:18:20.658Z,0
2022-10-10T02:19:21.376Z,0
2022-10-10T02:20:22.606Z,0
2022-10-10T02:21:54.462Z,0
2022-10-10T02:22:55.115Z,0
2022-10-10T02:23:55.647Z,0
2022-10-10T02:24:56.297Z,0
2022-10-10T02:25:58.032Z,0
2022-10-10T02:26:58.803Z,0
2022-10-10T02:27:59.646Z,0
2022-10-10T02:29:00.231Z,0
2022-10-10T02:30:00.820Z,0
2022-10-10T02:31:01.542Z,0
2022-10-10T02:32:03.021Z,0
2022-10-10T02:33:03.904Z,0
2022-10-10T02:34:04.506Z,0
2022-10-10T02:35:05.039Z,0
2022-10-10T02:36:05.755Z,0
2022-10-10T02:37:06.575Z,0
2022-10-10T02:38:07.451Z,0
2022-10-10T02:39:08.751Z,0
2022-10-10T02:40:09.385Z,0
2022-10-10T02:41:10.028Z,0
2022-10-10T02:42:11.458Z,0
2022-10-10T02:43:12.203Z,0
2022-10-10T02:44:12.771Z,0
2022-10-10T02:45:13.400Z,0
2022-10-10T02:46:14.358Z,0
2022-10-10T02:47:15.259Z,0
2022-10-10T02:48:16.031Z,0
2022-10-10T02:49:16.661Z,0
2022-10-10T02:50:17.230Z,0
2022-10-10T02:51:18.012Z,0
2022-10-10T02:52:19.404Z,0
2022-10-10T02:53:20.103Z,0
2022-10-10T02:54:20.832Z,0
2022-10-10T02:55:21.607Z,0
2022-10-10T02:56:53.471Z,0
2022-10-10T02:57:54.421Z,0
2022-10-10T02:58:55.107Z,0
2022-10-10T02:59:55.690Z,0
2022-10-10T03:00:56.649Z,0
2022-10-10T03:01:57.987Z,0
2022-10-10T03:02:59.480Z,0
2022-10-10T03:03:59.970Z,0
2022-10-10T03:05:00.650Z,0
2022-10-10T03:06:01.391Z,0
2022-10-10T03:07:02.212Z,0
2022-10-10T03:08:02.766Z,0
2022-10-10T03:09:03.296Z,0
2022-10-10T03:10:04.058Z,0
2022-10-10T03:11:04.848Z,0
2022-10-10T03:12:06.423Z,0
2022-10-10T03:13:06.997Z,0
2022-10-10T03:14:07.672Z,0
2022-10-10T03:15:11.701Z,0
2022-10-10T03:16:09.259Z,0
2022-10-10T03:17:10.087Z,0
2022-10-10T03:18:10.634Z,0
2022-10-10T03:19:11.204Z,0
2022-10-10T03:20:12.084Z,0
2022-10-10T03:21:12.921Z,0
2022-10-10T03:22:14.343Z,0
2022-10-10T03:23:14.895Z,0
2022-10-10T03:24:15.542Z,0
2022-10-10T03:25:16.448Z,0
2022-10-10T03:26:17.252Z,0
2022-10-10T03:27:17.995Z,0
2022-10-10T03:28:19.274Z,0
2022-10-10T03:29:19.883Z,0
2022-10-10T03:30:21.091Z,0
2022-10-10T03:31:53.142Z,0
2022-10-10T03:32:54.078Z,0
2022-10-10T03:33:54.389Z,0
2022-10-10T03:34:55.311Z,0
2022-10-10T03:35:56.374Z,0
2022-10-10T03:36:57.121Z,0
2022-10-10T03:37:57.713Z,0
2022-10-10T03:38:58.300Z,0
2022-10-10T03:39:59.241Z,0
2022-10-10T03:41:00.137Z,0
2022-10-10T03:42:01.554Z,0
2022-10-10T03:43:02.150Z,0
2022-10-10T03:44:02.694Z,0
2022-10-10T03:45:03.454Z,0
2022-10-10T03:46:04.805Z,0
2022-10-10T03:47:05.561Z,0
2022-10-10T03:48:06.187Z,0
2022-10-10T03:49:06.727Z,0
2022-10-10T03:50:08.265Z,0
2022-10-10T03:51:08.812Z,0
2022-10-10T03:52:09.993Z,0
2022-10-10T03:53:10.514Z,0
2022-10-10T03:54:11.102Z,0
2022-10-10T03:55:11.716Z,0
2022-10-10T03:56:13.635Z,0
2022-10-10T03:57:14.172Z,0
2022-10-10T03:58:14.698Z,0
2022-10-10T03:59:15.289Z,0
2022-10-10T04:00:16.283Z,0
2022-10-10T04:01:17.209Z,0
2022-10-10T04:02:18.486Z,0
2022-10-10T04:03:18.996Z,0
2022-10-10T04:04:19.519Z,0
2022-10-10T04:05:20.045Z,0
2022-10-10T04:06:21.281Z,0
2022-10-10T04:07:52.063Z,0
2022-10-10T04:08:53.454Z,0
2022-10-10T04:09:54.400Z,0
2022-10-10T04:10:55.213Z,0
2022-10-10T04:11:55.987Z,0
2022-10-10T04:12:56.419Z,0
2022-10-10T04:13:56.930Z,0
2022-10-10T04:14:58.336Z,0
2022-10-10T04:15:59.158Z,0
2022-10-10T04:17:03.062Z,0
2022-10-10T04:18:00.791Z,0
2022-10-10T04:19:01.425Z,0
2022-10-10T04:20:02.015Z,0
2022-10-10T04:21:02.791Z,0
2022-10-10T04:22:05.973Z,0
2022-10-10T04:23:04.500Z,0
2022-10-10T04:24:05.229Z,0
2022-10-10T04:25:05.983Z,0
2022-10-10T04:26:06.600Z,0
2022-10-10T04:27:07.155Z,0
2022-10-10T04:28:07.818Z,0
2022-10-10T04:29:08.767Z,0
2022-10-10T04:30:09.364Z,0
2022-10-10T04:31:09.905Z,0
2022-10-10T04:32:11.030Z,0
2022-10-10T04:33:11.677Z,0
2022-10-10T04:34:12.585Z,0
2022-10-10T04:35:13.386Z,0
2022-10-10T04:36:13.976Z,0
2022-10-10T04:37:14.539Z,0
2022-10-10T04:38:15.114Z,0
2022-10-10T04:39:15.892Z,0
2022-10-10T04:40:16.638Z,0
2022-10-10T04:41:17.213Z,0
2022-10-10T04:42:18.487Z,0
2022-10-10T04:43:19.039Z,0
2022-10-10T04:44:19.519Z,0
2022-10-10T04:45:20.165Z,0
2022-10-10T04:46:51.174Z,0
2022-10-10T04:47:51.738Z,0
2022-10-10T04:48:52.452Z,0
2022-10-10T04:49:54.053Z,0
2022-10-10T04:50:54.687Z,0
2022-10-10T04:51:55.155Z,0
2022-10-10T04:52:56.309Z,0
2022-10-10T04:53:57.114Z,0
2022-10-10T04:54:57.872Z,0
2022-10-10T04:55:58.460Z,0
2022-10-10T04:56:58.946Z,0
2022-10-10T04:57:59.457Z,0
2022-10-10T04:59:00.761Z,0
2022-10-10T05:00:01.303Z,0
2022-10-10T05:01:01.965Z,0
2022-10-10T05:02:02.388Z,0
2022-10-10T05:03:03.617Z,0
2022-10-10T05:04:04.343Z,0
2022-10-10T05:05:04.981Z,0
2022-10-10T05:06:05.563Z,0
2022-10-10T05:07:06.126Z,0
2022-10-10T05:08:06.731Z,0
2022-10-10T05:09:08.089Z,0
2022-10-10T05:10:08.656Z,0
2022-10-10T05:11:09.257Z,0
2022-10-10T05:12:09.758Z,0
2022-10-10T05:13:11.261Z,0
2022-10-10T05:14:11.961Z,0
2022-10-10T05:15:12.513Z,0
2022-10-10T05:16:13.054Z,0
2022-10-10T05:17:13.605Z,0
2022-10-10T05:18:14.368Z,0
2022-10-10T05:19:14.998Z,0
2022-10-10T05:20:15.545Z,0
2022-10-10T05:21:16.063Z,0
2022-10-10T05:22:17.481Z,0
2022-10-10T05:23:18.988Z,0
2022-10-10T05:24:19.649Z,0
2022-10-10T05:25:50.928Z,4
2022-10-10T05:26:51.443Z,4
2022-10-10T05:27:52.158Z,0
2022-10-10T05:28:53.558Z,4
2022-10-10T05:29:54.030Z,4
2022-10-10T05:30:54.546Z,4
2022-10-10T05:31:55.241Z,4
2022-10-10T05:32:56.508Z,8
2022-10-10T05:33:57.295Z,4
2022-10-10T05:34:57.808Z,8
2022-10-10T05:35:58.281Z,8
2022-10-10T05:36:59.227Z,8
2022-10-10T05:38:00.098Z,8
2022-10-10T05:39:00.901Z,12
2022-10-10T05:40:01.668Z,12
2022-10-10T05:41:02.553Z,12
2022-10-10T05:42:03.323Z,16
2022-10-10T05:43:05.036Z,16
2022-10-10T05:44:05.855Z,16
2022-10-10T05:45:06.414Z,20
2022-10-10T05:46:07.121Z,20
2022-10-10T05:47:07.791Z,24
2022-10-10T05:48:08.537Z,20
2022-10-10T05:49:10.632Z,24
2022-10-10T05:50:11.180Z,28
2022-10-10T05:51:11.717Z,28
2022-10-10T05:52:12.274Z,28
2022-10-10T05:53:13.807Z,28
2022-10-10T05:54:14.384Z,28
2022-10-10T05:55:14.974Z,32
2022-10-10T05:56:15.533Z,32
2022-10-10T05:57:16.540Z,32
2022-10-10T05:58:17.272Z,32
2022-10-10T05:59:17.822Z,36
2022-10-10T06:00:18.348Z,40
2022-10-10T06:01:18.922Z,40
2022-10-10T06:02:19.949Z,44
2022-10-10T06:03:51.504Z,48
2022-10-10T06:04:52.097Z,48
2022-10-10T06:05:52.641Z,52
2022-10-10T06:06:53.137Z,56
2022-10-10T06:08:05.721Z,60
2022-10-10T06:08:54.295Z,60
2022-10-10T06:09:55.774Z,68
2022-10-10T06:10:56.306Z,68
2022-10-10T06:11:56.900Z,72
2022-10-10T06:12:58.002Z,76
2022-10-10T06:13:58.600Z,80
2022-10-10T06:14:59.200Z,84
2022-10-10T06:15:59.771Z,92
2022-10-10T06:17:00.291Z,100
2022-10-10T06:18:00.852Z,108
2022-10-10T06:19:01.645Z,116
2022-10-10T06:20:02.197Z,124
2022-10-10T06:21:02.714Z,128
2022-10-10T06:22:03.997Z,136
2022-10-10T06:23:05.530Z,152
2022-10-10T06:24:06.075Z,184
2022-10-10T06:25:15.267Z,192
2022-10-10T06:26:07.179Z,216
2022-10-10T06:27:07.717Z,196
2022-10-10T06:28:08.328Z,192
2022-10-10T06:29:09.476Z,188
2022-10-10T06:30:10.002Z,172
2022-10-10T06:31:10.570Z,176
2022-10-10T06:32:11.131Z,172
2022-10-10T06:33:12.551Z,168
2022-10-10T06:34:13.037Z,168
2022-10-10T06:35:13.603Z,172
2022-10-10T06:36:14.101Z,176
2022-10-10T06:37:14.630Z,184
2022-10-10T06:38:15.188Z,196
2022-10-10T06:39:15.713Z,208
2022-10-10T06:40:16.268Z,236
2022-10-10T06:41:16.833Z,264
2022-10-10T06:42:17.369Z,288
2022-10-10T06:43:18.016Z,320
2022-10-10T06:44:49.878Z,320
2022-10-10T06:45:50.571Z,296
2022-10-10T06:46:51.122Z,280
2022-10-10T06:47:51.669Z,276
2022-10-10T06:48:52.240Z,276
2022-10-10T06:49:52.800Z,284
2022-10-10T06:50:54.258Z,288
2022-10-10T06:51:54.806Z,296
2022-10-10T06:52:55.369Z,296
2022-10-10T06:53:56.787Z,292
2022-10-10T06:54:57.328Z,292
2022-10-10T06:55:57.847Z,300
2022-10-10T06:56:58.368Z,324
2022-10-10T06:57:58.907Z,336
2022-10-10T06:58:59.506Z,348
2022-10-10T07:00:00.759Z,360
2022-10-10T07:01:01.290Z,360
2022-10-10T07:02:01.794Z,364
2022-10-10T07:03:02.339Z,372
2022-10-10T07:04:03.786Z,376
2022-10-10T07:05:04.325Z,380
2022-10-10T07:06:04.872Z,392
2022-10-10T07:07:05.466Z,420
2022-10-10T07:08:06.003Z,420
2022-10-10T07:09:07.340Z,436
2022-10-10T07:10:07.873Z,472
2022-10-10T07:11:08.425Z,496
2022-10-10T07:12:09.020Z,512
2022-10-10T07:13:09.547Z,696
2022-10-10T07:14:10.098Z,596
2022-10-10T07:15:10.677Z,592
2022-10-10T07:16:11.252Z,588
2022-10-10T07:17:11.863Z,600
2022-10-10T07:18:13.026Z,560
2022-10-10T07:19:13.604Z,556
2022-10-10T07:20:14.172Z,540
2022-10-10T07:21:14.703Z,536
2022-10-10T07:22:15.294Z,544
2022-10-10T07:23:16.477Z,536
2022-10-10T07:24:17.023Z,532
2022-10-10T07:25:17.603Z,512
2022-10-10T07:26:18.234Z,512
2022-10-10T07:27:49.290Z,512
2022-10-10T07:28:49.809Z,504
2022-10-10T07:29:50.726Z,508
2022-10-10T07:30:51.136Z,512
2022-10-10T07:31:51.711Z,512
2022-10-10T07:32:52.836Z,504
2022-10-10T07:33:53.931Z,516
2022-10-10T07:34:54.566Z,580
2022-10-10T07:35:55.101Z,516
2022-10-10T07:36:55.667Z,588
2022-10-10T07:37:56.252Z,656
2022-10-10T07:38:56.885Z,720
2022-10-10T07:39:58.410Z,596
2022-10-10T07:40:58.922Z,540
2022-10-10T07:41:59.494Z,528
2022-10-10T07:43:01.029Z,596
2022-10-10T07:44:02.561Z,516
2022-10-10T07:45:03.140Z,548
2022-10-10T07:46:05.782Z,536
2022-10-10T07:47:04.170Z,600
2022-10-10T07:48:04.735Z,524
2022-10-10T07:49:05.340Z,520
2022-10-10T07:50:05.929Z,524
2022-10-10T07:51:06.493Z,544
2022-10-10T07:52:07.819Z,564
2022-10-10T07:53:08.388Z,568
2022-10-10T07:54:09.826Z,564
2022-10-10T07:55:10.416Z,568
2022-10-10T07:56:11.001Z,564
2022-10-10T07:57:11.579Z,556
2022-10-10T07:58:12.194Z,564
2022-10-10T07:59:12.730Z,580
2022-10-10T08:00:13.305Z,600
2022-10-10T08:01:13.791Z,620
2022-10-10T08:02:14.386Z,652
2022-10-10T08:03:14.877Z,664
2022-10-10T08:04:16.312Z,672
2022-10-10T08:05:16.870Z,680
2022-10-10T08:06:17.458Z,680
2022-10-10T08:07:18.436Z,688
2022-10-10T08:08:51.226Z,704
2022-10-10T08:09:50.988Z,712
2022-10-10T08:10:51.552Z,740
2022-10-10T08:11:52.046Z,756
2022-10-10T08:12:52.579Z,764
2022-10-10T08:13:54.001Z,776
2022-10-10T08:14:54.583Z,784
2022-10-10T08:15:55.204Z,792
2022-10-10T08:16:55.735Z,804
2022-10-10T08:17:56.342Z,828
2022-10-10T08:18:56.875Z,840
2022-10-10T08:19:57.422Z,832
2022-10-10T08:20:58.022Z,836
2022-10-10T08:21:59.525Z,836
2022-10-10T08:23:00.097Z,848
2022-10-10T08:24:01.516Z,864
2022-10-10T08:25:02.089Z,872
2022-10-10T08:26:02.594Z,892
2022-10-10T08:27:03.111Z,904
2022-10-10T08:28:04.552Z,920
2022-10-10T08:29:05.072Z,932
2022-10-10T08:30:05.589Z,920
2022-10-10T08:31:06.243Z,924
2022-10-10T08:32:06.767Z,920
2022-10-10T08:33:07.285Z,924
2022-10-10T08:34:08.534Z,924
2022-10-10T08:35:09.067Z,924
2022-10-10T08:36:09.615Z,916
2022-10-10T08:37:10.133Z,920
2022-10-10T08:38:10.691Z,924
2022-10-10T08:39:11.270Z,904
2022-10-10T08:40:11.826Z,912
2022-10-10T08:41:12.366Z,908
2022-10-10T08:42:12.875Z,900
2022-10-10T08:43:13.407Z,904
2022-10-10T08:44:14.486Z,912
2022-10-10T08:45:15.013Z,896
2022-10-10T08:46:15.623Z,896
2022-10-10T08:47:16.226Z,908
2022-10-10T08:48:16.706Z,900
2022-10-10T08:49:17.233Z,888
2022-10-10T08:50:48.375Z,884
2022-10-10T08:51:49.503Z,884
2022-10-10T08:52:50.418Z,888
2022-10-10T08:53:51.562Z,896
2022-10-10T08:54:57.474Z,904
2022-10-10T08:55:52.628Z,920
2022-10-10T08:56:53.188Z,944
2022-10-10T08:57:54.512Z,952
2022-10-10T08:58:55.067Z,956
2022-10-10T08:59:55.651Z,952
2022-10-10T09:00:56.259Z,956
2022-10-10T09:02:18.800Z,968
2022-10-10T09:02:57.372Z,968
2022-10-10T09:03:58.502Z,972
2022-10-10T09:04:59.900Z,976
2022-10-10T09:06:00.644Z,988
2022-10-10T09:07:01.185Z,996
2022-10-10T09:08:01.708Z,996
2022-10-10T09:09:02.342Z,972
2022-10-10T09:10:02.974Z,964
2022-10-10T09:11:03.685Z,968
2022-10-10T09:12:04.739Z,968
2022-10-10T09:13:05.259Z,960
2022-10-10T09:14:06.601Z,952
2022-10-10T09:15:07.299Z,940
2022-10-10T09:16:07.995Z,932
2022-10-10T09:17:08.561Z,920
2022-10-10T09:18:09.024Z,904
2022-10-10T09:19:11.607Z,900
2022-10-10T09:20:10.328Z,892
2022-10-10T09:21:11.505Z,904
2022-10-10T09:22:12.015Z,936
2022-10-10T09:23:12.494Z,984
2022-10-10T09:24:14.028Z,1012
2022-10-10T09:25:14.730Z,1100
2022-10-10T09:26:15.346Z,1104
2022-10-10T09:27:15.955Z,1180
2022-10-10T09:28:16.513Z,1192
2022-10-10T09:29:17.742Z,1236
2022-10-10T09:30:48.769Z,1364
2022-10-10T09:31:49.369Z,1340
2022-10-10T09:32:50.769Z,1452
2022-10-10T09:33:51.250Z,1372
2022-10-10T09:34:52.285Z,1296
2022-10-10T09:35:52.751Z,1224
2022-10-10T09:36:57.236Z,1216
2022-10-10T09:37:53.752Z,1200
2022-10-10T09:38:54.255Z,1204
2022-10-10T09:39:54.718Z,1204
2022-10-10T09:40:55.780Z,1208
2022-10-10T09:41:55.765Z,1224
2022-10-10T09:42:56.276Z,1256
2022-10-10T09:43:57.793Z,1264
2022-10-10T09:44:59.253Z,1280
2022-10-10T09:45:59.753Z,1292
2022-10-10T09:47:00.233Z,1308
2022-10-10T09:48:00.761Z,1300
2022-10-10T09:49:01.337Z,1328
2022-10-10T09:50:01.829Z,1348
2022-10-10T09:51:02.324Z,1352
2022-10-10T09:52:03.482Z,1372
2022-10-10T09:53:04.005Z,1392
2022-10-10T09:54:04.521Z,1404
2022-10-10T09:55:04.983Z,1436
2022-10-10T09:56:06.230Z,1464
2022-10-10T09:57:06.690Z,1484
2022-10-10T09:58:07.302Z,1532
2022-10-10T09:59:07.805Z,1536
2022-10-10T10:00:08.304Z,1544
2022-10-10T10:01:08.861Z,1528
2022-10-10T10:02:09.255Z,1528
2022-10-10T10:03:09.823Z,1512
2022-10-10T10:04:26.581Z,1520
2022-10-10T10:05:11.746Z,1500
2022-10-10T10:06:12.237Z,1496
2022-10-10T10:07:12.726Z,1464
2022-10-10T10:08:13.239Z,1432
2022-10-10T10:09:13.853Z,1424
2022-10-10T10:10:14.350Z,1372
2022-10-10T10:11:14.895Z,1372
2022-10-10T10:12:15.352Z,1384
2022-10-10T10:13:15.864Z,1400
2022-10-10T10:14:16.364Z,1452
2022-10-10T10:15:48.063Z,1448
2022-10-10T10:16:48.616Z,1472
2022-10-10T10:17:49.151Z,1440
2022-10-10T10:18:49.709Z,1460
2022-10-10T10:19:50.334Z,1452
2022-10-10T10:20:51.027Z,1540
2022-10-10T10:21:52.248Z,1460
2022-10-10T10:23:53.783Z,1384
2022-10-10T10:24:54.987Z,1392
2022-10-10T10:25:55.819Z,1512
2022-10-10T10:26:56.581Z,1548
2022-10-10T10:27:57.263Z,1436
2022-10-10T10:28:58.829Z,1420
2022-10-10T10:29:59.369Z,1304
2022-10-10T10:31:00.038Z,1312
2022-10-10T10:32:00.741Z,1440
2022-10-10T10:33:01.489Z,1500
2022-10-10T10:34:03.051Z,1380
2022-10-10T10:35:03.595Z,1348
2022-10-10T10:36:04.928Z,1256
2022-10-10T10:37:05.627Z,1200
2022-10-10T10:38:06.398Z,1180
2022-10-10T10:39:07.086Z,1164
2022-10-10T10:40:07.569Z,1200
2022-10-10T10:41:08.228Z,1228
2022-10-10T10:42:08.952Z,1224
2022-10-10T10:43:09.649Z,1216
2022-10-10T10:44:10.358Z,1196
2022-10-10T10:45:11.809Z,1152
2022-10-10T10:46:12.313Z,1128
2022-10-10T10:47:13.021Z,1064
2022-10-10T10:48:13.704Z,1044
2022-10-10T10:49:14.524Z,1076
2022-10-10T10:50:16.013Z,1036
2022-10-10T10:51:46.925Z,1020
2022-10-10T10:52:47.627Z,1032
2022-10-10T10:53:49.074Z,968
2022-10-10T10:54:49.908Z,916
2022-10-10T10:55:51.375Z,900
2022-10-10T10:56:51.948Z,976
2022-10-10T10:58:05.116Z,996
2022-10-10T10:59:30.289Z,1048
2022-10-10T11:00:26.173Z,1044
2022-10-10T11:01:23.497Z,1028
2022-10-10T11:01:58.103Z,976
2022-10-10T11:03:06.042Z,952
2022-10-10T11:05:20.539Z,848
2022-10-10T11:05:20.602Z,892
2022-10-10T11:05:59.387Z,920
2022-10-10T11:07:17.750Z,872
2022-10-10T11:08:00.354Z,964
2022-10-10T11:09:00.914Z,956
2022-10-10T11:10:02.635Z,820
2022-10-10T11:11:03.345Z,820
2022-10-10T11:12:04.647Z,820
2022-10-10T11:13:04.564Z,876
2022-10-10T11:14:05.105Z,828
2022-10-10T11:15:06.696Z,884
2022-10-10T11:16:10.918Z,908
2022-10-10T11:17:08.206Z,908
2022-10-10T11:18:08.769Z,884
2022-10-10T11:19:09.329Z,796
2022-10-10T11:20:10.075Z,920
2022-10-10T11:21:10.779Z,1048
2022-10-10T11:22:12.531Z,792
2022-10-10T11:23:13.098Z,724
2022-10-10T11:24:13.676Z,748
2022-10-10T11:25:15.044Z,796
2022-10-10T11:26:16.264Z,528
2022-10-10T11:27:47.361Z,572
2022-10-10T11:28:53.125Z,852
2022-10-10T11:29:49.327Z,852
2022-10-10T11:30:49.861Z,648
2022-10-10T11:31:50.707Z,868
2022-10-10T11:32:51.463Z,884
2022-10-10T11:33:52.974Z,884
2022-10-10T11:34:52.739Z,924
2022-10-10T11:35:53.920Z,960
2022-10-10T11:36:54.601Z,940
2022-10-10T11:37:55.356Z,920
2022-10-10T11:38:56.112Z,924
2022-10-10T11:39:56.703Z,824
2022-10-10T11:40:57.226Z,908
2022-10-10T11:41:57.841Z,988
2022-10-10T11:42:58.551Z,996
2022-10-10T11:43:59.288Z,1036
2022-10-10T11:45:00.534Z,1008
2022-10-10T11:46:03.129Z,1008
2022-10-10T11:47:01.561Z,1052
2022-10-10T11:48:02.209Z,1064
2022-10-10T11:49:03.302Z,1056
2022-10-10T11:50:03.911Z,1160
2022-10-10T11:51:04.475Z,1204
2022-10-10T11:52:31.927Z,1260
2022-10-10T11:53:05.747Z,1356
2022-10-10T11:54:06.652Z,1436
2022-10-10T11:55:08.134Z,1348
2022-10-10T11:56:08.839Z,1264
2022-10-10T11:57:12.755Z,1216
2022-10-10T11:58:09.893Z,1196
2022-10-10T11:59:10.656Z,1192
2022-10-10T12:00:11.410Z,1136
2022-10-10T12:01:12.128Z,1132
2022-10-10T12:02:12.687Z,1132
2022-10-10T12:03:13.243Z,1176
2022-10-10T12:04:13.897Z,1188
2022-10-10T12:05:15.634Z,1316
2022-10-10T12:06:47.061Z,1424
2022-10-10T12:07:47.811Z,1040
2022-10-10T12:08:48.343Z,1064
2022-10-10T12:09:48.947Z,1260
2022-10-10T12:10:49.598Z,1280
2022-10-10T12:11:50.478Z,1304
2022-10-10T12:12:52.041Z,1332
2022-10-10T12:13:52.541Z,1356
2022-10-10T12:14:53.067Z,1380
2022-10-10T12:15:53.753Z,1400
2022-10-10T12:16:54.961Z,1436
2022-10-10T12:17:55.795Z,1464
2022-10-10T12:18:56.402Z,1484
2022-10-10T12:19:56.980Z,1504
2022-10-10T12:20:57.521Z,1540
2022-10-10T12:21:58.389Z,1576
2022-10-10T12:22:59.908Z,1612
2022-10-10T12:24:00.598Z,1644
2022-10-10T12:25:01.219Z,1672
2022-10-10T12:26:02.872Z,1704
2022-10-10T12:27:03.068Z,1740
2022-10-10T12:28:03.764Z,1772
2022-10-10T12:29:04.430Z,1808
2022-10-10T12:30:05.561Z,1872
2022-10-10T12:31:06.510Z,1904
2022-10-10T12:32:06.870Z,1916
2022-10-10T12:33:07.573Z,1956
2022-10-10T12:34:08.894Z,1996
2022-10-10T12:35:09.486Z,2036
2022-10-10T12:36:10.818Z,2104
2022-10-10T12:37:11.345Z,2160
2022-10-10T12:38:12.094Z,2212
2022-10-10T12:39:13.431Z,2264
2022-10-10T12:40:14.043Z,2312
2022-10-10T12:41:14.550Z,2424
2022-10-10T12:42:45.848Z,2480
2022-10-10T12:43:46.504Z,2536
2022-10-10T12:44:47.885Z,2564
2022-10-10T12:45:49.152Z,2540
2022-10-10T12:46:49.722Z,2660
2022-10-10T12:48:05.126Z,2732
2022-10-10T12:48:51.247Z,2776
2022-10-10T12:49:51.956Z,2832
2022-10-10T12:50:52.582Z,2860
2022-10-10T12:51:53.774Z,2896
2022-10-10T12:52:54.331Z,2952
2022-10-10T12:53:55.105Z,3016
2022-10-10T12:54:55.757Z,3060
2022-10-10T12:55:56.886Z,3112
2022-10-10T12:56:57.398Z,3156
2022-10-10T12:57:57.955Z,3216
2022-10-10T12:58:58.724Z,3272
2022-10-10T13:00:02.057Z,3380
2022-10-10T13:01:00.947Z,3616
2022-10-10T13:02:01.391Z,4388
2022-10-10T13:03:01.889Z,5364
2022-10-10T13:04:03.056Z,6360
2022-10-10T13:05:03.765Z,16544
2022-10-10T13:06:04.956Z,50720
2022-10-10T13:07:05.639Z,60128
2022-10-10T13:08:06.222Z,61632
2022-10-10T13:09:06.937Z,52896
2022-10-10T13:10:07.622Z,53792
2022-10-10T13:11:08.247Z,51648
2022-10-10T13:12:09.088Z,53952
2022-10-10T13:13:09.635Z,58304
2022-10-10T13:14:10.197Z,3036
2022-10-10T13:15:10.765Z,52128
2022-10-10T13:16:11.903Z,56224
2022-10-10T13:17:12.499Z,33280
2022-10-10T13:18:13.146Z,60512
2022-10-10T13:19:13.808Z,59840
2022-10-10T13:20:45.175Z,59520
2022-10-10T13:21:45.843Z,56320
2022-10-10T13:22:47.312Z,30816
2022-10-10T13:24:48.631Z,46880
2022-10-10T13:25:50.161Z,45056
2022-10-10T13:26:50.850Z,40416
2022-10-10T13:27:51.557Z,8208
2022-10-10T13:28:53.113Z,4744
2022-10-10T13:29:53.774Z,15200
2022-10-10T13:30:54.923Z,12596
2022-10-10T13:31:55.576Z,11004
2022-10-10T13:32:56.469Z,10936
2022-10-10T13:33:57.312Z,10520
2022-10-10T13:34:57.972Z,12308
2022-10-10T13:35:59.621Z,11700
2022-10-10T13:37:00.280Z,10916
2022-10-10T13:38:00.940Z,10736
2022-10-10T13:39:01.586Z,10632
2022-10-10T13:40:02.414Z,10228
2022-10-10T13:41:03.506Z,9416
2022-10-10T13:42:03.576Z,9168
2022-10-10T13:43:04.088Z,8248
2022-10-10T13:44:04.746Z,8384
2022-10-10T13:45:05.459Z,8076
2022-10-10T13:46:06.583Z,8164
2022-10-10T13:47:07.152Z,10844
2022-10-10T13:48:07.727Z,17568
2022-10-10T13:49:08.299Z,15744
2022-10-10T13:50:09.058Z,8548
2022-10-10T13:51:10.255Z,7980
2022-10-10T13:52:11.438Z,7520
2022-10-10T13:53:11.979Z,7968
2022-10-10T13:54:13.328Z,8172
2022-10-10T13:55:14.462Z,15072
2022-10-10T13:56:46.492Z,16704
2022-10-10T13:57:47.174Z,12252
2022-10-10T13:58:47.662Z,8676
2022-10-10T13:59:48.136Z,7736
2022-10-10T14:00:48.868Z,7456
2022-10-10T14:01:49.521Z,7392
2022-10-10T14:02:50.383Z,7548
2022-10-10T14:03:50.929Z,9344
2022-10-10T14:04:51.459Z,17088
2022-10-10T14:05:52.573Z,21536
2022-10-10T14:06:53.333Z,16416
2022-10-10T14:07:53.943Z,9968
2022-10-10T14:08:54.654Z,8276
2022-10-10T14:09:55.294Z,7548
2022-10-10T14:10:55.751Z,7604
2022-10-10T14:11:56.282Z,7692
2022-10-10T14:12:57.031Z,7968
2022-10-10T14:13:57.694Z,9372
2022-10-10T14:14:58.894Z,15872
2022-10-10T14:15:59.397Z,21408
2022-10-10T14:16:59.905Z,17984
2022-10-10T14:18:01.508Z,11324
2022-10-10T14:19:02.344Z,8764
2022-10-10T14:20:04.066Z,7396
2022-10-10T14:21:05.134Z,7468
2022-10-10T14:22:05.074Z,7692
2022-10-10T14:23:05.720Z,7692
2022-10-10T14:24:07.071Z,7476